Time;durP1;ratioP1;P1;durP2;ratioP2;P2;SDS_P1;SDS_P2;PMS_P1;PMS_P2;Temp;Humidity;BMP_temperature;BMP_pressure;BME280_temperature;BME280_humidity;BME280_pressure;Samples;Min_cycle;Max_cycle;Signal;HPM_P1;HPM_P2
2023/06/13 00:01:24;;;;;;;4.10;3.42;;;23.30;48.10;;;;;;5075298;28;20550;-76
2023/06/13 00:03:52;;;;;;;3.85;3.55;;;23.30;48.10;;;;;;5074874;28;20199;-76
2023/06/13 00:06:20;;;;;;;3.80;3.50;;;23.30;48.10;;;;;;5074511;28;20215;-76
2023/06/13 00:08:49;;;;;;;3.40;3.10;;;23.30;48.10;;;;;;5074705;28;20229;-76
2023/06/13 00:11:16;;;;;;;3.80;3.50;;;23.30;48.20;;;;;;5074464;28;20218;-76
2023/06/13 00:13:44;;;;;;;3.65;3.35;;;23.20;48.10;;;;;;5075038;28;20190;-76
2023/06/13 00:16:12;;;;;;;3.38;3.15;;;23.20;48.20;;;;;;5074908;28;20202;-76
2023/06/13 00:18:39;;;;;;;3.60;3.30;;;23.30;48.40;;;;;;5075458;28;20646;-76
2023/06/13 00:21:07;;;;;;;3.88;3.58;;;23.20;48.30;;;;;;5074279;28;20223;-76
2023/06/13 00:23:34;;;;;;;3.60;3.25;;;23.20;48.30;;;;;;5074469;28;20324;-76
2023/06/13 00:26:03;;;;;;;3.60;3.30;;;23.20;48.30;;;;;;5075587;28;20310;-76
2023/06/13 00:28:30;;;;;;;3.50;3.10;;;23.10;48.30;;;;;;5076002;28;20535;-75
2023/06/13 00:30:57;;;;;;;3.70;3.40;;;23.10;48.30;;;;;;5076533;28;20218;-75
2023/06/13 00:33:31;;;;;;;3.85;3.55;;;23.10;48.90;;;;;;5076712;28;20562;-75
2023/06/13 00:35:58;;;;;;;3.53;3.20;;;23.10;48.30;;;;;;5134815;22;20246;-82
2023/06/13 00:38:28;;;;;;;3.55;3.28;;;23.10;48.30;;;;;;5097047;28;20201;-84
2023/06/13 00:40:56;;;;;;;3.60;3.30;;;23.10;48.30;;;;;;5096649;28;20217;-84
2023/06/13 00:43:27;;;;;;;4.38;3.97;;;23.10;48.30;;;;;;5096131;28;20277;-84
2023/06/13 00:45:54;;;;;;;3.55;3.25;;;23.10;48.30;;;;;;5095740;28;20206;-84
2023/06/13 00:48:22;;;;;;;3.63;3.33;;;23.00;48.20;;;;;;5095227;28;20204;-84
2023/06/13 00:50:50;;;;;;;4.15;3.38;;;23.00;48.30;;;;;;5095376;28;20210;-84
2023/06/13 00:53:19;;;;;;;3.95;3.65;;;23.00;48.30;;;;;;5095460;28;20194;-84
2023/06/13 00:55:47;;;;;;;4.32;3.85;;;23.00;48.30;;;;;;5097479;28;20197;-84
2023/06/13 00:58:14;;;;;;;3.33;3.10;;;23.00;48.40;;;;;;5096452;28;20193;-84
2023/06/13 01:00:44;;;;;;;3.63;3.33;;;23.00;48.40;;;;;;5098995;28;20566;-84
2023/06/13 01:03:15;;;;;;;3.75;3.45;;;23.00;48.50;;;;;;5099766;28;20205;-84
2023/06/13 01:05:43;;;;;;;3.80;3.42;;;22.90;48.50;;;;;;5100223;28;20217;-84
2023/06/13 01:08:11;;;;;;;4.10;3.70;;;23.00;48.60;;;;;;5097991;28;20197;-84
2023/06/13 01:10:40;;;;;;;3.78;3.47;;;23.00;48.60;;;;;;5098320;28;20218;-84
2023/06/13 01:13:10;;;;;;;3.58;3.28;;;22.90;48.50;;;;;;5097052;28;20247;-84
2023/06/13 01:15:39;;;;;;;4.03;3.55;;;22.90;48.60;;;;;;5095639;28;20190;-84
2023/06/13 01:18:08;;;;;;;3.22;3.03;;;22.90;48.60;;;;;;5095617;28;20202;-84
2023/06/13 01:20:35;;;;;;;3.58;3.28;;;22.90;48.60;;;;;;5097207;28;20198;-84
2023/06/13 01:23:15;;;;;;;4.07;3.42;;;22.90;48.60;;;;;;5095853;28;20675;-84
2023/06/13 01:25:52;;;;;;;3.72;3.42;;;22.90;48.70;;;;;;5094713;28;20224;-84
2023/06/13 01:28:22;;;;;;;3.78;3.47;;;22.90;48.70;;;;;;5095698;28;20206;-84
2023/06/13 01:30:50;;;;;;;3.60;3.30;;;22.90;48.70;;;;;;5095526;28;20226;-84
2023/06/13 01:33:17;;;;;;;3.90;3.60;;;22.90;48.70;;;;;;5095512;28;20202;-84
2023/06/13 01:35:45;;;;;;;3.65;3.35;;;22.80;48.70;;;;;;5095053;28;20206;-84
2023/06/13 01:38:12;;;;;;;3.60;3.30;;;22.80;48.70;;;;;;5095326;28;20200;-84
2023/06/13 01:40:39;;;;;;;3.63;3.25;;;22.80;48.70;;;;;;5094785;28;20228;-84
2023/06/13 01:43:06;;;;;;;3.53;3.22;;;22.80;48.70;;;;;;5094818;28;20190;-84
2023/06/13 01:45:34;;;;;;;3.70;3.40;;;22.80;48.70;;;;;;5094556;28;20205;-84
2023/06/13 01:48:05;;;;;;;3.70;3.40;;;22.80;48.70;;;;;;5094327;28;20702;-84
2023/06/13 01:50:44;;;;;;;3.70;3.40;;;22.70;48.60;;;;;;5094845;28;20183;-82
2023/06/13 01:53:14;;;;;;;3.80;3.50;;;22.70;48.60;;;;;;5096081;28;20182;-83
2023/06/13 01:55:44;;;;;;;3.95;3.58;;;22.70;48.70;;;;;;5094283;28;20339;-84
2023/06/13 01:58:14;;;;;;;3.60;3.30;;;22.70;48.70;;;;;;5093774;28;20285;-84
2023/06/13 02:00:43;;;;;;;3.90;3.50;;;22.70;48.70;;;;;;5093892;28;20216;-84
2023/06/13 02:03:10;;;;;;;3.67;3.30;;;22.70;48.70;;;;;;5093875;28;20197;-84
2023/06/13 02:05:38;;;;;;;3.40;3.13;;;22.70;48.70;;;;;;5093760;28;20194;-84
2023/06/13 02:08:06;;;;;;;3.88;3.20;;;22.70;48.70;;;;;;5093987;28;20581;-84
2023/06/13 02:10:33;;;;;;;3.60;3.30;;;22.70;48.80;;;;;;5094033;28;20196;-84
2023/06/13 02:13:03;;;;;;;3.40;3.10;;;22.60;48.70;;;;;;5094757;28;20213;-84
2023/06/13 02:15:30;;;;;;;3.53;3.25;;;22.60;48.70;;;;;;5094280;28;20197;-84
2023/06/13 02:17:59;;;;;;;3.67;3.38;;;22.60;48.70;;;;;;5093965;28;20560;-84
2023/06/13 02:20:25;;;;;;;3.40;3.10;;;22.70;48.90;;;;;;5093971;28;20235;-84
2023/06/13 02:22:53;;;;;;;3.63;3.33;;;22.70;48.80;;;;;;5093421;28;20205;-84
2023/06/13 02:25:20;;;;;;;3.97;3.58;;;22.60;48.70;;;;;;5093403;28;20231;-84
2023/06/13 02:27:47;;;;;;;3.33;3.03;;;22.60;48.70;;;;;;5093610;28;20278;-84
2023/06/13 02:30:15;;;;;;;3.70;3.40;;;22.60;48.80;;;;;;5093483;28;20570;-84
2023/06/13 02:32:43;;;;;;;3.90;3.60;;;22.60;48.80;;;;;;5094392;28;20221;-84
2023/06/13 02:35:13;;;;;;;4.03;3.60;;;22.60;48.80;;;;;;5094176;28;20213;-84
2023/06/13 02:37:39;;;;;;;3.70;3.40;;;22.60;48.80;;;;;;5096745;28;20547;-84
2023/06/13 02:40:08;;;;;;;3.50;3.20;;;22.60;48.90;;;;;;5097916;28;20201;-84
2023/06/13 02:42:35;;;;;;;3.53;3.22;;;22.50;48.80;;;;;;5097191;28;20247;-84
2023/06/13 02:45:03;;;;;;;3.67;3.33;;;22.50;48.80;;;;;;5098738;28;20186;-84
2023/06/13 02:47:30;;;;;;;3.28;3.08;;;22.50;48.80;;;;;;5097109;28;20688;-84
2023/06/13 02:49:57;;;;;;;3.80;3.50;;;22.50;48.90;;;;;;5081093;28;20652;-84
2023/06/13 02:52:26;;;;;;;3.50;3.20;;;22.50;48.90;;;;;;5098513;28;20727;-84
2023/06/13 02:54:53;;;;;;;3.60;3.30;;;22.50;48.90;;;;;;5097472;28;20599;-84
2023/06/13 02:57:21;;;;;;;3.55;3.25;;;22.50;48.90;;;;;;5097088;28;20660;-84
2023/06/13 02:59:48;;;;;;;3.58;3.28;;;22.50;49.00;;;;;;5097946;28;20190;-84
2023/06/13 03:02:16;;;;;;;3.60;3.30;;;22.50;49.00;;;;;;5096862;28;20244;-84
2023/06/13 03:04:43;;;;;;;3.50;3.20;;;22.40;48.90;;;;;;5098350;28;20664;-84
2023/06/13 03:07:16;;;;;;;3.70;3.40;;;22.40;48.80;;;;;;5080567;28;20218;-84
2023/06/13 03:09:46;;;;;;;3.25;3.05;;;22.40;48.70;;;;;;5097922;28;20255;-84
2023/06/13 03:12:13;;;;;;;3.90;3.53;;;22.40;48.30;;;;;;5097900;28;20245;-84
2023/06/13 03:14:45;;;;;;;3.50;3.20;;;22.50;48.30;;;;;;5097934;28;20594;-83
2023/06/13 03:17:16;;;;;;;4.13;3.35;;;22.40;48.30;;;;;;5097646;28;20186;-83
2023/06/13 03:19:44;;;;;;;3.40;3.10;;;22.40;48.40;;;;;;5081840;28;20220;-83
2023/06/13 03:22:13;;;;;;;3.53;3.22;;;22.40;48.40;;;;;;5081456;28;20217;-83
2023/06/13 03:24:42;;;;;;;3.58;3.28;;;22.50;48.40;;;;;;5098571;28;20248;-83
2023/06/13 03:27:12;;;;;;;3.10;2.80;;;22.60;48.20;;;;;;5082021;28;20214;-83
2023/06/13 03:29:40;;;;;;;3.38;3.15;;;22.60;48.10;;;;;;5082087;28;20565;-83
2023/06/13 03:32:09;;;;;;;3.50;3.20;;;22.70;48.00;;;;;;5098107;28;20217;-83
2023/06/13 03:34:38;;;;;;;2.97;2.78;;;22.70;47.90;;;;;;5081482;28;20284;-83
2023/06/13 03:37:06;;;;;;;3.72;3.42;;;22.70;47.90;;;;;;5098783;28;20190;-83
2023/06/13 03:39:34;;;;;;;3.10;2.80;;;22.70;47.90;;;;;;5098224;28;20190;-83
2023/06/13 03:42:02;;;;;;;3.30;3.00;;;22.80;47.80;;;;;;5099139;28;20218;-83
2023/06/13 03:44:31;;;;;;;3.38;3.10;;;22.80;47.70;;;;;;5113819;28;20235;-83
2023/06/13 03:46:58;;;;;;;3.25;2.95;;;22.80;47.60;;;;;;5114441;28;20218;-83
2023/06/13 03:49:26;;;;;;;3.38;3.10;;;22.80;47.50;;;;;;5113407;28;20228;-83
2023/06/13 03:51:53;;;;;;;3.60;3.30;;;22.90;47.60;;;;;;5085641;28;20217;-83
2023/06/13 03:54:21;;;;;;;3.70;3.40;;;22.90;47.50;;;;;;5108850;28;20194;-83
2023/06/13 03:56:48;;;;;;;3.38;3.10;;;22.90;47.40;;;;;;5099197;28;20217;-84
2023/06/13 03:59:16;;;;;;;3.42;3.13;;;22.90;47.40;;;;;;5096383;28;20217;-84
2023/06/13 04:01:44;;;;;;;3.53;3.22;;;22.90;47.40;;;;;;5079673;28;20222;-82
2023/06/13 04:04:12;;;;;;;3.10;2.85;;;22.90;47.50;;;;;;5097254;28;20202;-84
2023/06/13 04:06:39;;;;;;;3.50;3.20;;;22.90;47.40;;;;;;5097034;28;20205;-85
2023/06/13 04:09:07;;;;;;;3.47;3.17;;;22.90;47.40;;;;;;5097773;28;20221;-84
2023/06/13 04:11:34;;;;;;;3.30;3.00;;;22.90;47.40;;;;;;5101005;28;20236;-85
2023/06/13 04:14:01;;;;;;;3.42;3.13;;;22.90;47.40;;;;;;5101003;28;20280;-85
2023/06/13 04:16:28;;;;;;;3.58;3.25;;;22.90;47.40;;;;;;5099835;28;20731;-85
2023/06/13 04:18:57;;;;;;;3.60;3.15;;;22.90;47.30;;;;;;5099355;28;20202;-84
2023/06/13 04:21:25;;;;;;;3.33;3.00;;;22.90;47.30;;;;;;5099189;28;20210;-84
2023/06/13 04:23:53;;;;;;;3.03;2.83;;;22.90;47.30;;;;;;5099070;28;20197;-84
2023/06/13 04:26:20;;;;;;;3.35;3.05;;;22.90;47.20;;;;;;5099740;28;20202;-84
2023/06/13 04:28:50;;;;;;;3.00;2.80;;;22.90;47.20;;;;;;5099284;28;20210;-84
2023/06/13 04:31:17;;;;;;;3.45;2.95;;;22.90;47.20;;;;;;5099499;28;20214;-83
2023/06/13 04:33:45;;;;;;;3.75;3.35;;;22.90;47.20;;;;;;5100890;28;20208;-83
2023/06/13 04:36:14;;;;;;;3.17;2.90;;;22.90;47.20;;;;;;5099159;28;20244;-83
2023/06/13 04:38:43;;;;;;;2.95;2.65;;;22.90;47.20;;;;;;5099027;28;20212;-83
2023/06/13 04:41:10;;;;;;;3.35;3.05;;;22.90;47.00;;;;;;5098718;28;20252;-83
2023/06/13 04:43:38;;;;;;;3.35;3.05;;;23.00;46.90;;;;;;5094725;28;20653;-83
2023/06/13 04:46:05;;;;;;;3.25;2.95;;;23.10;46.60;;;;;;5094993;28;20303;-83
2023/06/13 04:48:32;;;;;;;3.47;3.17;;;23.30;46.00;;;;;;5094953;28;20221;-83
2023/06/13 04:51:00;;;;;;;3.08;2.88;;;23.50;45.60;;;;;;5095501;28;20222;-83
2023/06/13 04:53:29;;;;;;;3.38;3.08;;;23.70;45.10;;;;;;5095254;28;20205;-83
2023/06/13 04:55:57;;;;;;;2.95;2.75;;;23.90;44.70;;;;;;5094537;28;20281;-83
2023/06/13 04:58:24;;;;;;;3.33;3.03;;;24.10;44.30;;;;;;5094890;28;20193;-83
2023/06/13 05:00:52;;;;;;;3.28;2.97;;;24.30;43.80;;;;;;5095286;28;20617;-82
2023/06/13 05:03:20;;;;;;;2.80;2.60;;;24.50;43.50;;;;;;5095327;28;20229;-82
2023/06/13 05:05:47;;;;;;;3.17;2.90;;;24.60;43.30;;;;;;5095406;28;20216;-83
2023/06/13 05:08:19;;;;;;;3.45;3.08;;;24.80;43.00;;;;;;5078150;28;20308;-82
2023/06/13 05:10:47;;;;;;;3.15;2.85;;;24.90;42.70;;;;;;5095388;28;20229;-82
2023/06/13 05:13:14;;;;;;;4.15;3.10;;;25.00;40.70;;;;;;5095047;28;20194;-82
2023/06/13 05:15:42;;;;;;;7.03;3.15;;;25.00;40.30;;;;;;5095519;28;20201;-82
2023/06/13 05:18:12;;;;;;;3.95;3.00;;;24.90;37.00;;;;;;5093889;28;20191;-82
2023/06/13 05:20:39;;;;;;;3.45;2.90;;;24.70;37.10;;;;;;5093754;28;20225;-82
2023/06/13 05:23:07;;;;;;;4.07;3.10;;;24.70;35.90;;;;;;5094008;28;20209;-83
2023/06/13 05:25:34;;;;;;;4.00;3.30;;;24.50;35.60;;;;;;5094983;28;20198;-82
2023/06/13 05:28:03;;;;;;;4.85;3.40;;;24.30;36.80;;;;;;5094803;28;20236;-82
2023/06/13 05:30:30;;;;;;;4.95;3.13;;;24.20;37.20;;;;;;5095259;28;20204;-82
2023/06/13 05:32:58;;;;;;;3.17;2.88;;;24.20;36.30;;;;;;5095886;28;20197;-82
2023/06/13 05:35:25;;;;;;;5.97;2.95;;;24.20;34.90;;;;;;5095365;28;20209;-82
2023/06/13 05:37:52;;;;;;;4.25;3.28;;;24.20;34.90;;;;;;5094831;28;20216;-82
2023/06/13 05:40:19;;;;;;;4.38;3.10;;;24.10;34.80;;;;;;5093277;28;20198;-83
2023/06/13 05:42:46;;;;;;;5.07;3.10;;;24.20;34.20;;;;;;5093575;28;20293;-83
2023/06/13 05:47:50;;;;;;;3.17;2.88;;;24.20;33.30;;;;;;5027640;28;20228;-77
2023/06/13 05:50:17;;;;;;;3.88;3.28;;;24.30;32.90;;;;;;4997098;28;20200;-76
2023/06/13 05:52:44;;;;;;;4.65;2.85;;;24.30;33.70;;;;;;5013554;28;20199;-76
2023/06/13 05:55:11;;;;;;;3.40;2.95;;;24.40;34.70;;;;;;5013681;28;20202;-75
2023/06/13 05:57:39;;;;;;;3.85;3.10;;;24.60;35.60;;;;;;5012969;28;20664;-75
2023/06/13 06:00:08;;;;;;;3.65;2.80;;;24.80;36.10;;;;;;5013254;28;20232;-76
2023/06/13 06:02:39;;;;;;;3.15;2.85;;;25.00;36.20;;;;;;5014426;28;20220;-76
2023/06/13 06:05:11;;;;;;;2.75;2.55;;;25.20;35.90;;;;;;5013082;28;20197;-76
2023/06/13 06:07:38;;;;;;;3.30;2.88;;;25.30;35.50;;;;;;5013228;28;20216;-76
2023/06/13 06:10:06;;;;;;;3.53;2.65;;;25.50;35.50;;;;;;5013074;28;20690;-76
2023/06/13 06:12:32;;;;;;;7.45;2.85;;;25.60;34.80;;;;;;5012285;28;20314;-76
2023/06/13 06:15:01;;;;;;;2.88;2.58;;;25.80;34.80;;;;;;5012742;28;20682;-76
2023/06/13 06:17:27;;;;;;;2.92;2.50;;;25.90;34.80;;;;;;5012981;28;20258;-76
2023/06/13 06:19:55;;;;;;;3.10;2.60;;;26.00;34.60;;;;;;5013169;28;20197;-76
2023/06/13 06:22:23;;;;;;;3.05;2.58;;;26.00;34.20;;;;;;5012693;28;20220;-76
2023/06/13 06:24:51;;;;;;;4.78;2.65;;;26.20;33.80;;;;;;5012597;28;20200;-76
2023/06/13 06:27:18;;;;;;;3.35;2.88;;;26.30;33.80;;;;;;5013002;28;20211;-76
2023/06/13 06:29:45;;;;;;;3.67;2.72;;;26.40;34.00;;;;;;5012562;28;20290;-76
2023/06/13 06:32:12;;;;;;;2.83;2.50;;;26.50;34.00;;;;;;5012316;28;20212;-76
2023/06/13 06:34:40;;;;;;;4.30;2.95;;;26.60;33.80;;;;;;4996483;28;20196;-76
2023/06/13 06:37:07;;;;;;;2.97;2.65;;;26.60;33.50;;;;;;5012589;28;20201;-76
2023/06/13 06:39:36;;;;;;;3.75;2.47;;;26.70;33.50;;;;;;5012907;28;20200;-75
2023/06/13 06:42:03;;;;;;;3.92;2.63;;;26.80;33.60;;;;;;5012498;28;20220;-75
2023/06/13 06:44:46;;;;;;;2.88;2.60;;;26.90;33.70;;;;;;4998855;28;20197;-75
2023/06/13 06:47:13;;;;;;;3.42;2.95;;;27.00;33.70;;;;;;5014424;28;20206;-75
2023/06/13 06:49:41;;;;;;;4.43;2.85;;;27.00;33.40;;;;;;5012572;28;20278;-76
2023/06/13 06:52:08;;;;;;;2.95;2.72;;;27.10;33.50;;;;;;5012341;28;20223;-76
2023/06/13 06:54:37;;;;;;;2.65;2.30;;;27.20;33.60;;;;;;5012450;28;20207;-76
2023/06/13 06:57:05;;;;;;;3.17;2.92;;;27.20;33.50;;;;;;5012644;28;20196;-76
2023/06/13 06:59:32;;;;;;;2.50;2.30;;;27.30;33.60;;;;;;5012416;28;20642;-76
2023/06/13 07:01:59;;;;;;;2.80;2.53;;;27.30;33.60;;;;;;5012553;28;20274;-76
2023/06/13 07:04:26;;;;;;;2.83;2.53;;;27.40;33.40;;;;;;5012521;28;20200;-76
2023/06/13 07:06:53;;;;;;;3.42;2.50;;;27.40;33.40;;;;;;5012716;28;20200;-76
2023/06/13 07:09:20;;;;;;;2.83;2.47;;;27.50;33.40;;;;;;4996275;28;20274;-76
2023/06/13 07:11:50;;;;;;;2.83;2.60;;;27.50;33.40;;;;;;5012969;28;20682;-76
2023/06/13 07:14:18;;;;;;;2.78;2.58;;;27.60;33.40;;;;;;5014194;28;20200;-76
2023/06/13 07:16:45;;;;;;;3.22;2.67;;;27.60;33.40;;;;;;5012985;28;20208;-76
2023/06/13 07:19:12;;;;;;;2.80;2.58;;;27.70;34.00;;;;;;5015579;28;20196;-77
2023/06/13 07:21:39;;;;;;;2.90;2.63;;;27.70;33.30;;;;;;5013802;28;20768;-75
2023/06/13 07:24:06;;;;;;;2.88;2.65;;;27.70;33.30;;;;;;5013969;28;20659;-76
2023/06/13 07:26:33;;;;;;;2.95;2.47;;;27.80;33.30;;;;;;4999669;28;20206;-76
2023/06/13 07:29:02;;;;;;;2.70;2.50;;;27.80;33.30;;;;;;5016033;28;20220;-76
2023/06/13 07:31:30;;;;;;;2.70;2.50;;;27.90;33.40;;;;;;5016238;28;20220;-76
2023/06/13 07:33:57;;;;;;;2.80;2.50;;;27.80;33.20;;;;;;5017751;28;20188;-76
2023/06/13 07:36:24;;;;;;;3.08;2.60;;;27.90;33.20;;;;;;5018138;28;20192;-76
2023/06/13 07:38:52;;;;;;;2.90;2.70;;;27.90;33.00;;;;;;5015980;28;20668;-76
2023/06/13 07:41:19;;;;;;;2.70;2.50;;;27.90;33.00;;;;;;5015949;28;20216;-76
2023/06/13 07:43:46;;;;;;;3.83;2.90;;;28.00;33.10;;;;;;5015859;28;20207;-76
2023/06/13 07:46:14;;;;;;;3.22;2.80;;;28.00;33.10;;;;;;5015918;28;20216;-76
2023/06/13 07:48:41;;;;;;;3.00;2.70;;;28.00;33.10;;;;;;5015821;28;20578;-76
2023/06/13 07:51:09;;;;;;;2.65;2.45;;;28.00;33.10;;;;;;5015590;28;20231;-76
2023/06/13 07:53:36;;;;;;;3.10;2.70;;;28.10;33.10;;;;;;5015297;28;20230;-76
2023/06/13 07:56:04;;;;;;;2.80;2.60;;;28.10;33.10;;;;;;5015321;28;20662;-76
2023/06/13 07:58:31;;;;;;;2.83;2.50;;;28.10;33.10;;;;;;5015351;28;20196;-76
2023/06/13 08:00:58;;;;;;;2.92;2.67;;;28.20;33.20;;;;;;5015223;28;20219;-76
2023/06/13 08:03:27;;;;;;;2.70;2.50;;;28.10;33.10;;;;;;5014907;28;20663;-76
2023/06/13 08:05:54;;;;;;;2.60;2.40;;;28.20;33.20;;;;;;5015304;28;20299;-76
2023/06/13 08:08:21;;;;;;;2.45;2.25;;;28.20;33.20;;;;;;5015713;28;20303;-76
2023/06/13 08:10:48;;;;;;;2.67;2.47;;;28.30;33.20;;;;;;5014880;28;20227;-76
2023/06/13 08:13:16;;;;;;;3.03;2.75;;;28.30;33.20;;;;;;5014969;28;20192;-76
2023/06/13 08:15:43;;;;;;;2.60;2.40;;;28.30;33.20;;;;;;5015158;28;20211;-76
2023/06/13 08:18:10;;;;;;;2.63;2.42;;;28.20;33.00;;;;;;5015051;28;20651;-76
2023/06/13 08:20:39;;;;;;;3.42;2.50;;;28.30;33.10;;;;;;5015015;28;20220;-76
2023/06/13 08:23:06;;;;;;;2.80;2.60;;;28.30;33.20;;;;;;5015472;28;20234;-76
2023/06/13 08:25:33;;;;;;;3.75;2.60;;;28.30;33.20;;;;;;5015258;28;20207;-76
2023/06/13 08:28:00;;;;;;;3.22;2.60;;;28.30;33.30;;;;;;5015147;28;20196;-76
2023/06/13 08:30:27;;;;;;;3.17;2.50;;;28.40;33.30;;;;;;5016002;28;20563;-76
2023/06/13 08:32:54;;;;;;;3.03;2.20;;;28.30;33.30;;;;;;5016040;28;20196;-76
2023/06/13 08:35:22;;;;;;;2.78;2.08;;;28.40;33.30;;;;;;5015114;28;20188;-76
2023/06/13 08:37:50;;;;;;;2.40;2.20;;;28.40;33.30;;;;;;5015632;28;20203;-76
2023/06/13 08:40:19;;;;;;;3.03;2.70;;;28.40;33.30;;;;;;5015834;28;20208;-76
2023/06/13 08:42:47;;;;;;;2.85;2.55;;;28.40;33.30;;;;;;5015942;28;20693;-76
2023/06/13 08:45:15;;;;;;;2.65;2.45;;;28.40;33.40;;;;;;5015873;28;20330;-76
2023/06/13 08:47:46;;;;;;;2.50;2.30;;;28.40;33.40;;;;;;5016107;28;20246;-76
2023/06/13 08:50:18;;;;;;;2.75;2.55;;;28.40;33.50;;;;;;5015380;28;20215;-76
2023/06/13 08:52:46;;;;;;;2.30;2.10;;;28.40;33.50;;;;;;5016311;28;20181;-76
2023/06/13 08:55:16;;;;;;;2.47;2.28;;;28.50;33.50;;;;;;5014538;28;20671;-76
2023/06/13 08:57:45;;;;;;;2.28;2.08;;;28.50;33.60;;;;;;5015754;28;20196;-76
2023/06/13 09:00:15;;;;;;;2.38;2.17;;;28.50;33.70;;;;;;5014338;28;20196;-76
2023/06/13 09:02:43;;;;;;;2.30;2.15;;;28.50;33.70;;;;;;5015686;28;20195;-76
2023/06/13 09:05:13;;;;;;;2.67;2.25;;;28.40;33.60;;;;;;5014385;28;20200;-76
2023/06/13 09:07:40;;;;;;;2.58;2.38;;;28.50;33.40;;;;;;5014136;28;20200;-75
2023/06/13 09:10:10;;;;;;;2.63;2.42;;;28.50;33.60;;;;;;5014354;28;20307;-75
2023/06/13 09:12:39;;;;;;;2.67;2.47;;;28.40;33.30;;;;;;5015509;28;20640;-76
2023/06/13 09:15:07;;;;;;;2.85;2.65;;;28.50;33.60;;;;;;5015395;28;20188;-76
2023/06/13 09:17:35;;;;;;;3.15;2.50;;;28.50;33.60;;;;;;5014335;28;20196;-76
2023/06/13 09:20:04;;;;;;;2.70;2.50;;;28.50;33.60;;;;;;5015197;28;20242;-77
2023/06/13 09:22:31;;;;;;;2.60;2.40;;;28.50;33.50;;;;;;5013830;28;20255;-77
2023/06/13 09:24:59;;;;;;;2.33;2.20;;;28.50;33.70;;;;;;5014151;28;20203;-77
2023/06/13 09:27:26;;;;;;;2.50;2.30;;;28.50;33.40;;;;;;5014617;28;20196;-77
2023/06/13 09:29:55;;;;;;;2.35;2.25;;;28.40;33.40;;;;;;4997521;28;20226;-77
2023/06/13 09:32:23;;;;;;;2.65;2.45;;;28.50;33.70;;;;;;4997478;28;20227;-77
2023/06/13 09:34:50;;;;;;;2.72;2.50;;;28.40;33.60;;;;;;5014366;28;20192;-77
2023/06/13 09:37:17;;;;;;;3.28;2.25;;;28.40;33.80;;;;;;5015145;28;20567;-77
2023/06/13 09:39:48;;;;;;;2.50;2.30;;;28.40;33.90;;;;;;5014391;28;20264;-77
2023/06/13 09:42:15;;;;;;;2.67;2.47;;;28.40;33.90;;;;;;5014634;28;20303;-77
2023/06/13 09:44:42;;;;;;;2.47;2.28;;;28.40;34.00;;;;;;5015272;28;20659;-77
2023/06/13 09:47:11;;;;;;;2.40;2.20;;;28.40;34.10;;;;;;5013077;28;20204;-77
2023/06/13 09:49:38;;;;;;;2.78;2.15;;;28.40;34.10;;;;;;5013454;28;20252;-77
2023/06/13 09:52:05;;;;;;;2.85;2.55;;;28.30;34.10;;;;;;5013175;28;20212;-75
2023/06/13 09:54:33;;;;;;;2.67;2.47;;;28.30;34.00;;;;;;5013249;28;20200;-76
2023/06/13 09:57:00;;;;;;;2.60;2.40;;;28.30;34.40;;;;;;5013208;28;20196;-76
2023/06/13 09:59:26;;;;;;;2.60;2.40;;;28.20;34.30;;;;;;5012935;28;20250;-76
2023/06/13 10:01:54;;;;;;;2.80;2.50;;;28.30;34.50;;;;;;5013198;28;20310;-76
2023/06/13 10:04:23;;;;;;;2.53;2.33;;;28.20;34.40;;;;;;5013177;28;20254;-76
2023/06/13 10:06:50;;;;;;;2.58;2.38;;;28.20;34.60;;;;;;5012994;28;20243;-76
2023/06/13 10:09:17;;;;;;;2.40;2.20;;;28.20;34.60;;;;;;5013145;28;20224;-76
2023/06/13 10:11:46;;;;;;;2.40;2.20;;;28.20;34.60;;;;;;5013152;28;20581;-76
2023/06/13 10:14:15;;;;;;;2.35;2.15;;;28.10;34.60;;;;;;5012998;28;20670;-76
2023/06/13 10:16:44;;;;;;;2.47;2.28;;;28.10;34.70;;;;;;5012702;28;20208;-76
2023/06/13 10:19:12;;;;;;;2.40;2.20;;;28.10;34.90;;;;;;4996424;28;20628;-76
2023/06/13 10:21:40;;;;;;;2.88;2.60;;;28.10;34.90;;;;;;5012685;28;20699;-76
2023/06/13 10:24:07;;;;;;;2.50;2.30;;;28.00;35.00;;;;;;4996534;28;20303;-76
2023/06/13 10:26:37;;;;;;;2.40;2.20;;;28.00;35.10;;;;;;5014115;28;20712;-76
2023/06/13 10:29:20;;;;;;;2.47;2.28;;;28.00;35.20;;;;;;5012736;28;20251;-76
2023/06/13 10:31:53;;;;;;;2.97;2.30;;;28.00;35.30;;;;;;5012565;28;20226;-76
2023/06/13 10:34:37;;;;;;;2.45;2.25;;;27.90;35.40;;;;;;5013714;28;20252;-76
2023/06/13 10:37:32;;;;;;;2.65;2.45;;;27.90;36.10;;;;;;5012406;28;20188;-76
2023/06/13 10:40:13;;;;;;;2.60;2.40;;;27.80;35.50;;;;;;5012833;28;20196;-76
2023/06/13 10:42:41;;;;;;;2.50;2.30;;;27.80;35.70;;;;;;5015018;28;20223;-76
2023/06/13 10:45:09;;;;;;;2.65;2.45;;;27.80;35.80;;;;;;5015286;28;20206;-76
2023/06/13 10:47:38;;;;;;;2.30;2.10;;;27.70;35.60;;;;;;5012760;28;20307;-76
2023/06/13 10:50:08;;;;;;;2.67;2.47;;;27.70;35.90;;;;;;5013336;28;20259;-76
2023/06/13 10:52:36;;;;;;;3.05;2.42;;;27.70;36.10;;;;;;5013711;28;20219;-76
2023/06/13 10:55:04;;;;;;;2.58;2.38;;;27.60;36.00;;;;;;5012449;28;20651;-76
2023/06/13 10:57:47;;;;;;;2.70;2.50;;;27.50;36.20;;;;;;5013190;28;20196;-76
2023/06/13 11:00:23;;;;;;;2.50;2.30;;;27.50;36.40;;;;;;5017323;28;20253;-76
2023/06/13 11:02:51;;;;;;;2.45;2.25;;;27.40;36.70;;;;;;5016750;28;20192;-76
2023/06/13 11:05:18;;;;;;;2.42;2.22;;;27.40;36.70;;;;;;5000047;28;20196;-76
2023/06/13 11:07:48;;;;;;;2.60;2.40;;;27.30;36.80;;;;;;5016290;28;20662;-76
2023/06/13 11:10:16;;;;;;;2.60;2.40;;;27.30;36.80;;;;;;5016929;28;20557;-76
2023/06/13 11:12:43;;;;;;;2.70;2.50;;;27.30;36.90;;;;;;5015758;28;20211;-76
2023/06/13 11:15:21;;;;;;;2.40;2.20;;;27.20;37.00;;;;;;5015982;28;20200;-76
2023/06/13 11:18:26;;;;;;;2.45;2.25;;;27.20;37.00;;;;;;5015986;28;20208;-76
2023/06/13 11:20:54;;;;;;;2.28;2.08;;;27.20;37.20;;;;;;5015784;28;20322;-76
2023/06/13 11:23:24;;;;;;;2.42;2.22;;;27.20;37.20;;;;;;5016261;28;20207;-75
2023/06/13 11:25:52;;;;;;;3.60;2.20;;;27.20;37.30;;;;;;5017682;28;20239;-75
2023/06/13 11:28:19;;;;;;;2.38;2.17;;;27.20;37.30;;;;;;5017505;28;20537;-76
2023/06/13 11:30:48;;;;;;;2.55;2.35;;;27.20;37.90;;;;;;5016872;28;20224;-76
2023/06/13 11:33:16;;;;;;;2.50;2.30;;;27.10;37.30;;;;;;5016049;28;20196;-76
2023/06/13 11:35:46;;;;;;;2.30;2.10;;;27.20;38.10;;;;;;5016075;28;20258;-76
2023/06/13 11:38:18;;;;;;;2.53;2.33;;;27.10;37.40;;;;;;5015896;28;20205;-76
2023/06/13 11:40:48;;;;;;;2.45;2.25;;;27.10;37.50;;;;;;5016485;28;20690;-76
2023/06/13 11:43:15;;;;;;;2.38;2.17;;;27.10;37.50;;;;;;5017354;28;20200;-76
2023/06/13 11:45:42;;;;;;;2.70;2.50;;;27.10;37.60;;;;;;5058865;22;20264;-78
2023/06/13 11:48:11;;;;;;;2.40;2.20;;;27.00;37.60;;;;;;5057136;28;20187;-78
2023/06/13 11:50:40;;;;;;;2.60;2.40;;;27.10;38.20;;;;;;5040277;28;20317;-79
2023/06/13 11:53:08;;;;;;;2.50;2.30;;;27.10;37.80;;;;;;5057290;28;20271;-79
2023/06/13 11:55:35;;;;;;;2.50;2.30;;;27.00;37.70;;;;;;5056661;28;20249;-79
2023/06/13 11:58:04;;;;;;;2.20;2.00;;;27.10;37.70;;;;;;5058117;28;20198;-82
2023/06/13 12:00:49;;;;;;;2.28;2.15;;;27.00;37.70;;;;;;5059340;28;20190;-82
2023/06/13 12:03:19;;;;;;;2.50;2.30;;;27.10;37.90;;;;;;5058884;28;20197;-82
2023/06/13 12:05:47;;;;;;;2.50;2.30;;;27.00;37.70;;;;;;5058181;28;20206;-82
2023/06/13 12:08:14;;;;;;;2.50;2.30;;;27.00;37.60;;;;;;5057847;28;20612;-82
2023/06/13 12:10:41;;;;;;;3.10;2.47;;;27.00;37.70;;;;;;5056449;28;20272;-81
2023/06/13 12:13:11;;;;;;;2.55;2.35;;;27.00;37.90;;;;;;5056446;28;20198;-81
2023/06/13 12:15:38;;;;;;;2.50;2.30;;;27.00;37.80;;;;;;5056387;28;20225;-82
2023/06/13 12:18:05;;;;;;;2.20;2.10;;;27.00;38.10;;;;;;5056908;28;20199;-81
2023/06/13 12:20:36;;;;;;;2.60;2.40;;;27.00;38.10;;;;;;5056307;28;20252;-82
2023/06/13 12:23:03;;;;;;;2.20;2.10;;;27.00;38.20;;;;;;5055651;28;20662;-81
2023/06/13 12:25:32;;;;;;;2.50;2.30;;;26.90;38.10;;;;;;5056287;28;20282;-81
2023/06/13 12:28:01;;;;;;;2.88;2.20;;;26.90;38.20;;;;;;5056057;28;20191;-81
2023/06/13 12:30:36;;;;;;;2.33;2.13;;;26.90;38.20;;;;;;5055879;28;20226;-81
2023/06/13 12:33:04;;;;;;;2.40;2.20;;;26.90;38.30;;;;;;5056570;28;20194;-81
2023/06/13 12:35:31;;;;;;;2.42;2.22;;;26.90;38.40;;;;;;5057017;28;20206;-81
2023/06/13 12:38:01;;;;;;;2.42;2.00;;;26.90;38.50;;;;;;5056298;28;20657;-81
2023/06/13 12:40:31;;;;;;;2.40;2.20;;;26.90;38.60;;;;;;5055482;28;20198;-82
2023/06/13 12:43:00;;;;;;;2.50;2.30;;;26.80;38.60;;;;;;5055626;28;20190;-81
2023/06/13 12:45:27;;;;;;;2.60;2.40;;;26.90;38.70;;;;;;5054793;28;20199;-81
2023/06/13 12:47:56;;;;;;;2.28;2.08;;;26.80;38.60;;;;;;5054825;28;20206;-81
2023/06/13 12:50:24;;;;;;;2.42;2.22;;;26.80;38.70;;;;;;5054806;28;20680;-81
2023/06/13 12:53:01;;;;;;;2.45;2.25;;;26.80;38.70;;;;;;5055061;28;20199;-81
2023/06/13 12:55:29;;;;;;;2.50;2.30;;;26.80;38.80;;;;;;5055080;28;20645;-81
2023/06/13 12:57:56;;;;;;;2.47;2.28;;;26.80;38.90;;;;;;5054914;28;20253;-81